Time;durP1;ratioP1;P1;durP2;ratioP2;P2;SDS_P1;SDS_P2;PMS_P1;PMS_P2;Temp;Humidity;BMP_temperature;BMP_pressure;BME280_temperature;BME280_humidity;BME280_pressure;Samples;Min_cycle;Max_cycle;Signal;HPM_P1;HPM_P2
2024/01/24 00:02:08;;;;;;;15.90;5.50;;;;;;;2.14;83.18;100374.11;217263;1257;139504;-74
2024/01/24 00:07:12;;;;;;;11.30;4.30;;;;;;;2.07;83.34;100368.82;217360;1257;140085;-77
2024/01/24 00:12:17;;;;;;;20.10;6.40;;;;;;;2.04;83.69;100351.49;217567;1257;139675;-73
2024/01/24 00:17:22;;;;;;;20.90;6.50;;;;;;;1.99;83.30;100337.06;217379;1257;140759;-72
2024/01/24 00:22:26;;;;;;;15.50;8.40;;;;;;;1.97;83.30;100337.30;217366;1260;139939;-71
2024/01/24 00:27:31;;;;;;;15.10;6.40;;;;;;;1.93;83.56;100334.09;217195;1260;139741;-72
2024/01/24 00:32:35;;;;;;;13.70;5.70;;;;;;;1.89;83.33;100341.35;217113;1259;140662;-77
2024/01/24 00:37:39;;;;;;;20.60;7.20;;;;;;;1.86;83.48;100332.34;217239;1260;140526;-75
2024/01/24 00:42:44;;;;;;;15.40;6.50;;;;;;;1.86;83.40;100336.61;217412;1257;140736;-77
2024/01/24 00:47:49;;;;;;;16.60;7.80;;;;;;;1.85;83.53;100325.84;217322;1261;140841;-75
2024/01/24 00:52:55;;;;;;;20.30;11.80;;;;;;;1.86;83.52;100305.92;217707;1259;140790;-75
2024/01/24 00:57:59;;;;;;;13.50;5.80;;;;;;;1.88;83.61;100275.17;217390;1257;140535;-71
2024/01/24 01:03:04;;;;;;;12.10;4.90;;;;;;;1.93;83.53;100242.60;217500;1256;139772;-72
2024/01/24 01:08:09;;;;;;;13.20;7.30;;;;;;;1.97;83.69;100220.62;218048;1256;141618;-71
2024/01/24 01:13:14;;;;;;;20.60;5.10;;;;;;;1.99;83.40;100207.56;217303;1256;139344;-72
2024/01/24 01:18:19;;;;;;;11.70;4.50;;;;;;;1.99;83.21;100194.39;217590;1260;139973;-78
2024/01/24 01:23:24;;;;;;;9.20;4.30;;;;;;;1.99;83.17;100179.20;217855;1259;142263;-74
2024/01/24 01:28:29;;;;;;;11.90;5.80;;;;;;;1.95;83.10;100163.06;217108;1257;140209;-70
2024/01/24 01:33:33;;;;;;;11.50;4.70;;;;;;;1.92;82.97;100162.88;217226;1257;139705;-73
2024/01/24 01:38:37;;;;;;;12.20;4.10;;;;;;;1.89;83.06;100170.38;217025;1257;139992;-73
2024/01/24 01:43:43;;;;;;;10.70;4.20;;;;;;;1.88;82.94;100144.95;216749;1260;139964;-72
2024/01/24 01:48:49;;;;;;;11.30;4.80;;;;;;;1.87;82.80;100133.71;216989;1256;140876;-72
2024/01/24 01:53:55;;;;;;;7.80;4.10;;;;;;;1.86;82.87;100120.30;217103;1257;139808;-75
2024/01/24 01:59:01;;;;;;;11.90;4.60;;;;;;;1.88;82.91;100113.63;216968;1257;140084;-75
2024/01/24 02:04:06;;;;;;;15.50;3.60;;;;;;;1.89;82.88;100101.54;217180;1256;140994;-73
2024/01/24 02:09:11;;;;;;;7.70;2.90;;;;;;;1.91;83.19;100089.80;217748;1257;140861;-74
2024/01/24 02:14:17;;;;;;;12.30;5.80;;;;;;;1.89;83.02;100058.75;217662;1257;232076;-76
2024/01/24 02:19:22;;;;;;;8.00;4.00;;;;;;;1.90;82.74;100044.68;216970;1259;141616;-77
2024/01/24 02:24:26;;;;;;;7.40;3.50;;;;;;;1.90;82.93;100038.02;217021;1259;140189;-77
2024/01/24 02:29:31;;;;;;;12.20;3.60;;;;;;;1.89;82.57;100039.20;216829;1259;140335;-76
2024/01/24 02:34:36;;;;;;;9.00;3.90;;;;;;;1.84;82.72;100021.80;216824;1259;140342;-74
2024/01/24 02:39:43;;;;;;;7.50;5.70;;;;;;;1.83;82.96;99979.98;217012;1259;140432;-72
2024/01/24 02:44:47;;;;;;;4.50;2.80;;;;;;;1.81;82.91;99962.14;217048;1257;149902;-69
2024/01/24 02:50:04;;;;;;;6.90;2.80;;;;;;;1.83;82.62;99936.71;216986;1257;139239;-71
2024/01/24 02:55:15;;;;;;;9.80;4.00;;;;;;;1.82;83.03;99921.40;217046;1257;139425;-71
2024/01/24 03:00:20;;;;;;;18.60;4.00;;;;;;;1.82;83.15;99914.05;220044;1257;140076;-74
2024/01/24 03:05:25;;;;;;;5.40;3.60;;;;;;;1.81;83.00;99871.01;218854;1259;140844;-76
2024/01/24 03:10:30;;;;;;;14.00;3.50;;;;;;;1.81;82.45;99858.56;216944;1259;139299;-75
2024/01/24 03:15:35;;;;;;;10.40;3.90;;;;;;;1.78;82.78;99851.75;217242;1260;139724;-75
2024/01/24 03:20:40;;;;;;;9.20;4.30;;;;;;;1.75;82.73;99844.01;217102;1260;140629;-73
2024/01/24 03:25:45;;;;;;;9.80;4.20;;;;;;;1.75;82.75;99833.92;217931;1260;140531;-73
2024/01/24 03:30:51;;;;;;;4.20;2.50;;;;;;;1.77;82.84;99816.30;217658;1257;139555;-73
2024/01/24 03:35:56;;;;;;;10.00;4.00;;;;;;;1.80;82.60;99806.69;216791;1257;140694;-72
2024/01/24 03:41:01;;;;;;;9.50;3.80;;;;;;;1.84;82.81;99802.63;217046;1259;140553;-71
2024/01/24 03:46:06;;;;;;;12.90;4.80;;;;;;;1.90;82.49;99793.73;217417;1257;139949;-72
2024/01/24 03:51:11;;;;;;;7.20;4.50;;;;;;;1.91;82.52;99784.13;217337;1260;139763;-73
2024/01/24 03:56:16;;;;;;;6.70;4.30;;;;;;;1.93;82.44;99765.20;216859;1257;140178;-75
2024/01/24 04:01:21;;;;;;;11.00;4.20;;;;;;;1.95;82.34;99747.20;216994;1260;141763;-72
2024/01/24 04:06:25;;;;;;;8.00;3.00;;;;;;;2.00;82.56;99726.98;216870;1260;139778;-77
2024/01/24 04:11:30;;;;;;;9.20;4.40;;;;;;;2.03;82.31;99714.73;217275;1260;139624;-77
2024/01/24 04:16:39;;;;;;;11.60;5.00;;;;;;;2.06;82.40;99715.17;217278;1257;139652;-72
2024/01/24 04:21:43;;;;;;;11.20;4.00;;;;;;;2.08;82.29;99699.55;217530;1257;139741;-71
2024/01/24 04:26:48;;;;;;;12.20;4.90;;;;;;;2.14;82.33;99686.43;217134;1260;140335;-72
2024/01/24 04:31:54;;;;;;;17.30;4.90;;;;;;;2.19;82.23;99678.29;216792;1262;140467;-72
2024/01/24 04:37:00;;;;;;;10.10;4.70;;;;;;;2.23;82.12;99660.13;217096;1262;139785;-76
2024/01/24 04:42:06;;;;;;;6.80;4.20;;;;;;;2.27;82.22;99650.32;216973;1260;139548;-77
2024/01/24 04:47:19;;;;;;;6.70;4.30;;;;;;;2.31;82.18;99638.07;217070;1256;139654;-77
2024/01/24 04:52:24;;;;;;;9.20;3.30;;;;;;;2.35;82.20;99629.88;216884;1260;140656;-76
2024/01/24 04:57:29;;;;;;;8.00;3.10;;;;;;;2.36;82.08;99616.45;219919;1260;259774;-78
2024/01/24 05:02:33;;;;;;;9.40;4.10;;;;;;;2.37;82.45;99619.66;219964;1258;141002;-75
2024/01/24 05:07:37;;;;;;;12.60;3.20;;;;;;;2.36;82.28;99605.36;217342;1256;140183;-74
2024/01/24 05:12:41;;;;;;;5.50;3.20;;;;;;;2.32;82.73;99584.83;217100;1260;139469;-74
2024/01/24 05:17:46;;;;;;;11.80;4.90;;;;;;;2.26;83.08;99557.48;217195;1256;139507;-73
2024/01/24 05:22:51;;;;;;;5.80;3.20;;;;;;;2.19;83.62;99526.89;217023;1260;140545;-74
2024/01/24 05:27:55;;;;;;;13.40;3.80;;;;;;;2.12;84.10;99507.51;216911;1263;140643;-75
2024/01/24 05:32:59;;;;;;;9.80;3.60;;;;;;;2.07;84.25;99488.88;217685;1260;139904;-74
2024/01/24 05:38:04;;;;;;;8.60;3.50;;;;;;;2.00;84.47;99463.36;217434;1260;139716;-72
2024/01/24 05:43:09;;;;;;;9.60;3.50;;;;;;;1.96;84.70;99434.27;216864;1260;139333;-73
2024/01/24 05:48:14;;;;;;;5.90;4.50;;;;;;;1.91;84.86;99414.64;217053;1257;141912;-75
2024/01/24 05:53:18;;;;;;;7.40;3.70;;;;;;;1.89;85.56;99410.54;217274;1258;140095;-73
2024/01/24 05:58:22;;;;;;;10.30;4.10;;;;;;;1.90;85.69;99397.36;217098;1260;140056;-72
2024/01/24 06:03:27;;;;;;;6.60;3.60;;;;;;;1.92;86.02;99392.37;216916;1260;139895;-76
2024/01/24 06:08:31;;;;;;;13.10;3.50;;;;;;;1.93;86.33;99402.24;216971;1260;139604;-74
2024/01/24 06:13:34;;;;;;;7.90;3.40;;;;;;;1.95;86.48;99381.85;216988;1260;139724;-72
2024/01/24 06:18:38;;;;;;;14.30;6.50;;;;;;;1.96;86.87;99373.05;217322;1260;139302;-74
2024/01/24 06:23:43;;;;;;;5.80;3.80;;;;;;;1.98;87.19;99361.14;217300;1260;139621;-74
2024/01/24 06:28:49;;;;;;;10.60;3.30;;;;;;;2.00;87.42;99344.81;217053;1260;140041;-74
2024/01/24 06:33:57;;;;;;;9.00;4.50;;;;;;;2.02;87.63;99313.01;217170;1260;139860;-77
2024/01/24 06:39:05;;;;;;;13.60;3.80;;;;;;;2.05;88.15;99294.06;217284;1258;139259;-73
2024/01/24 06:44:09;;;;;;;6.80;3.00;;;;;;;2.05;88.35;99267.33;216995;1257;140906;-73
2024/01/24 06:49:13;;;;;;;9.20;3.20;;;;;;;2.06;88.65;99257.67;217189;1260;139525;-75
2024/01/24 06:54:18;;;;;;;9.00;4.00;;;;;;;2.07;88.95;99250.80;217018;1257;140423;-76
2024/01/24 06:59:25;;;;;;;12.40;3.40;;;;;;;2.10;89.12;99242.73;217371;1260;140277;-75
2024/01/24 07:04:31;;;;;;;3.70;3.40;;;;;;;2.16;89.51;99229.36;217392;1260;139631;-74
2024/01/24 07:09:37;;;;;;;7.70;4.70;;;;;;;2.18;89.84;99217.73;218267;1257;139924;-74
2024/01/24 07:14:41;;;;;;;6.30;3.20;;;;;;;2.21;90.09;99199.58;217093;1260;139279;-77
2024/01/24 07:19:47;;;;;;;3.90;2.70;;;;;;;2.23;90.00;99188.43;217162;1258;140113;-74
2024/01/24 07:24:53;;;;;;;7.20;3.80;;;;;;;2.26;90.38;99184.84;217728;1260;139815;-71
2024/01/24 07:29:57;;;;;;;7.60;4.40;;;;;;;2.29;90.71;99156.02;217053;1257;140339;-74
2024/01/24 07:35:01;;;;;;;7.10;3.10;;;;;;;2.33;90.99;99143.54;217803;1257;140044;-77
2024/01/24 07:40:06;;;;;;;6.80;3.10;;;;;;;2.39;91.29;99140.24;217457;1260;139176;-76
2024/01/24 07:45:10;;;;;;;7.20;2.80;;;;;;;2.44;91.50;99126.95;217288;1257;141987;-68
2024/01/24 07:50:14;;;;;;;4.00;2.80;;;;;;;2.48;91.46;99113.88;217011;1260;139466;-75
2024/01/24 07:55:21;;;;;;;3.30;3.00;;;;;;;2.51;91.73;99094.94;217125;1257;140165;-72
2024/01/24 08:00:39;;;;;;;3.30;2.30;;;;;;;2.56;92.01;99081.69;216779;1260;139738;-73
2024/01/24 08:05:44;;;;;;;5.80;3.00;;;;;;;2.59;92.30;99075.42;216931;1260;141056;-71
2024/01/24 08:10:50;;;;;;;4.70;2.60;;;;;;;2.64;92.38;99066.61;216850;1260;140299;-69
2024/01/24 08:15:54;;;;;;;2.40;2.00;;;;;;;2.68;92.44;99071.64;217011;1257;139444;-73
2024/01/24 08:20:59;;;;;;;2.80;1.90;;;;;;;2.74;92.78;99052.71;216881;1260;140350;-71
2024/01/24 08:26:03;;;;;;;2.50;2.10;;;;;;;2.79;92.94;99048.23;217131;1256;139421;-73
2024/01/24 08:31:06;;;;;;;3.60;3.30;;;;;;;2.85;93.15;99035.05;217013;1257;140450;-70
2024/01/24 08:36:11;;;;;;;1.40;1.30;;;;;;;2.91;93.43;99030.15;217289;1257;140427;-72
2024/01/24 08:41:15;;;;;;;1.80;1.60;;;;;;;2.98;93.66;99029.23;217356;1260;139387;-73
2024/01/24 08:46:20;;;;;;;2.80;2.60;;;;;;;3.07;93.77;99029.65;217226;1257;139547;-74
2024/01/24 08:51:25;;;;;;;1.40;1.30;;;;;;;3.17;94.09;99028.35;217483;1258;140325;-75
2024/01/24 08:56:29;;;;;;;2.30;2.10;;;;;;;3.26;94.43;99028.75;217279;1257;140369;-75
2024/01/24 09:01:32;;;;;;;2.90;2.10;;;;;;;3.32;94.47;99018.86;217302;1257;141327;-75
2024/01/24 09:06:37;;;;;;;2.60;2.00;;;;;;;3.39;94.69;99020.61;217381;1256;139671;-76
2024/01/24 09:11:41;;;;;;;1.40;1.30;;;;;;;3.46;94.71;99017.92;217541;1257;139286;-74
2024/01/24 09:16:59;;;;;;;2.70;1.60;;;;;;;3.50;94.78;99009.17;217304;1256;139343;-73
2024/01/24 09:22:04;;;;;;;1.60;1.40;;;;;;;3.56;95.09;99007.73;217309;1259;141182;-74
2024/01/24 09:27:09;;;;;;;1.90;1.70;;;;;;;3.63;95.30;99013.08;217236;1257;141006;-70
2024/01/24 09:32:15;;;;;;;2.20;2.00;;;;;;;3.69;95.19;98999.46;217272;1257;139310;-71
2024/01/24 09:37:20;;;;;;;6.90;2.20;;;;;;;3.78;95.55;98982.44;217337;1257;139438;-68
2024/01/24 09:42:26;;;;;;;2.50;2.30;;;;;;;3.90;95.97;98975.82;217382;1257;140020;-72
2024/01/24 09:47:31;;;;;;;4.60;2.20;;;;;;;4.03;96.16;98969.33;217045;1259;139247;-70
2024/01/24 09:52:36;;;;;;;4.50;2.90;;;;;;;4.08;96.12;98961.95;217233;1257;139267;-72
2024/01/24 09:57:41;;;;;;;3.70;2.50;;;;;;;4.15;96.27;98950.28;217127;1260;140372;-72
2024/01/24 10:02:48;;;;;;;3.70;2.80;;;;;;;4.24;96.24;98942.77;217345;1259;140098;-72
2024/01/24 10:07:54;;;;;;;2.80;2.50;;;;;;;4.31;96.26;98927.19;217556;1260;139238;-72
2024/01/24 10:13:02;;;;;;;4.20;2.30;;;;;;;4.42;96.52;98924.73;219018;1256;139020;-75
2024/01/24 10:18:08;;;;;;;5.00;3.50;;;;;;;4.51;96.34;98929.05;217253;1256;139612;-73
2024/01/24 10:23:13;;;;;;;5.10;3.30;;;;;;;4.57;96.46;98929.70;217383;1256;140473;-72
2024/01/24 10:28:18;;;;;;;6.70;4.20;;;;;;;4.64;96.40;98926.70;217936;1258;140072;-69
2024/01/24 10:33:22;;;;;;;4.60;3.10;;;;;;;4.70;96.78;98917.92;217400;1256;140286;-69
2024/01/24 10:38:31;;;;;;;6.40;4.40;;;;;;;4.77;96.66;98935.00;217179;1257;139539;-68
2024/01/24 10:43:40;;;;;;;4.80;3.80;;;;;;;4.84;97.07;98910.81;217089;1258;139442;-69
2024/01/24 10:48:44;;;;;;;8.40;4.40;;;;;;;4.91;97.03;98907.48;218247;1259;139555;-71
2024/01/24 10:53:52;;;;;;;6.30;3.50;;;;;;;5.06;97.19;98915.96;217056;1257;139515;-76
2024/01/24 10:58:56;;;;;;;;;;;;;;;5.22;97.47;98917.12;217229;1259;140200;-76
2024/01/24 11:04:04;;;;;;;4.40;2.80;;;;;;;5.26;97.12;98928.02;217331;1260;125724;-74
2024/01/24 11:09:52;;;;;;;5.90;3.30;;;;;;;5.29;97.42;98920.02;217005;1259;139854;-72
2024/01/24 11:15:05;;;;;;;7.80;4.80;;;;;;;5.36;97.49;98913.35;216883;1259;140302;-72
2024/01/24 11:20:11;;;;;;;7.50;3.60;;;;;;;5.39;97.62;98911.97;217336;1256;139653;-72
2024/01/24 11:25:39;;;;;;;3.80;3.00;;;;;;;5.41;97.11;98912.81;216866;1259;139309;-73
2024/01/24 11:30:44;;;;;;;5.00;4.50;;;;;;;5.55;97.84;98904.10;217320;1257;139539;-72
2024/01/24 11:35:51;;;;;;;6.40;4.20;;;;;;;5.82;98.10;98895.48;217197;1257;139399;-72
2024/01/24 11:41:10;;;;;;;3.20;2.80;;;;;;;6.09;98.37;98889.85;218656;1255;140629;-72
2024/01/24 11:46:14;;;;;;;6.40;2.60;;;;;;;6.38;98.37;98876.61;217232;1257;139669;-71
2024/01/24 11:51:20;;;;;;;3.90;3.20;;;;;;;6.47;97.71;98866.27;217289;1257;140553;-71
2024/01/24 11:56:25;;;;;;;5.70;3.40;;;;;;;6.58;97.81;98877.02;218194;1256;139723;-72
2024/01/24 12:01:31;;;;;;;3.70;3.20;;;;;;;6.67;98.05;98879.14;216843;1259;139915;-71
2024/01/24 12:06:37;;;;;;;5.60;3.50;;;;;;;6.78;98.11;98852.89;216952;1256;139733;-71
2024/01/24 12:11:45;;;;;;;5.70;3.40;;;;;;;6.85;97.47;98849.27;216879;1256;140742;-71
2024/01/24 12:16:50;;;;;;;4.10;3.10;;;;;;;6.89;97.89;98854.14;216935;1257;141457;-72
2024/01/24 12:21:58;;;;;;;3.10;2.80;;;;;;;6.95;97.86;98853.02;219033;1256;140005;-72
2024/01/24 12:27:13;;;;;;;7.40;4.10;;;;;;;7.01;97.69;98853.79;217187;1256;139547;-71
2024/01/24 12:32:21;;;;;;;4.40;2.80;;;;;;;7.03;97.61;98858.75;217067;1256;140586;-71
2024/01/24 12:37:26;;;;;;;3.40;2.50;;;;;;;7.04;97.60;98861.50;219731;1260;140234;-72
2024/01/24 12:42:31;;;;;;;4.00;2.60;;;;;;;7.03;97.85;98863.83;217025;1257;140024;-72
2024/01/24 12:47:37;;;;;;;2.90;2.60;;;;;;;7.04;97.97;98863.05;218029;1256;140852;-72
2024/01/24 12:52:42;;;;;;;3.60;1.60;;;;;;;7.11;98.18;98879.36;217468;1256;139081;-72
2024/01/24 12:57:47;;;;;;;3.70;1.40;;;;;;;7.12;97.52;98885.37;219576;1256;139606;-72
2024/01/24 13:02:53;;;;;;;6.40;1.80;;;;;;;7.08;97.14;98902.77;217052;1257;140037;-71
2024/01/24 13:07:58;;;;;;;3.60;1.50;;;;;;;7.01;96.78;98899.40;216805;1256;139374;-72
2024/01/24 13:13:08;;;;;;;2.60;1.50;;;;;;;6.99;96.47;98892.31;217102;1257;139839;-71
2024/01/24 13:18:14;;;;;;;9.30;1.40;;;;;;;7.07;96.51;98890.51;216964;1256;139141;-71
2024/01/24 13:23:19;;;;;;;3.70;1.10;;;;;;;7.18;96.13;98893.18;216890;1260;141040;-72
2024/01/24 13:28:23;;;;;;;6.20;1.70;;;;;;;7.24;96.00;98899.84;216983;1257;139796;-71
2024/01/24 13:33:28;;;;;;;3.60;1.30;;;;;;;7.29;95.96;98909.08;217208;1257;140031;-70
2024/01/24 13:38:35;;;;;;;3.30;1.30;;;;;;;7.35;95.71;98905.89;216753;1259;140887;-70
2024/01/24 13:43:40;;;;;;;3.10;1.00;;;;;;;7.52;95.61;98901.04;216899;1257;139947;-71
2024/01/24 13:48:46;;;;;;;6.20;2.00;;;;;;;7.75;95.61;98902.22;216703;1256;149706;-71
2024/01/24 13:53:54;;;;;;;6.20;2.70;;;;;;;7.72;95.29;98914.36;217340;1257;139631;-72
2024/01/24 13:58:59;;;;;;;6.10;2.80;;;;;;;7.60;94.79;98927.64;217079;1257;140491;-71
2024/01/24 14:04:04;;;;;;;6.80;2.70;;;;;;;7.54;94.74;98927.45;217109;1257;139927;-71
2024/01/24 14:09:10;;;;;;;4.40;1.60;;;;;;;7.46;94.45;98922.73;219537;1259;140128;-70
2024/01/24 14:14:16;;;;;;;3.40;1.80;;;;;;;7.40;94.29;98915.65;217080;1256;140445;-71
2024/01/24 14:19:23;;;;;;;13.10;3.00;;;;;;;7.39;94.19;98912.81;220051;1256;139957;-72
2024/01/24 14:24:31;;;;;;;5.40;1.80;;;;;;;7.43;94.08;98909.65;220072;1256;139930;-72
2024/01/24 14:29:38;;;;;;;3.70;1.90;;;;;;;7.48;93.51;98917.30;220087;1256;139721;-72
2024/01/24 14:34:45;;;;;;;9.70;3.00;;;;;;;7.52;93.27;98927.39;218372;1256;139475;-71
2024/01/24 14:39:51;;;;;;;9.40;3.20;;;;;;;7.45;93.02;98930.50;219332;1256;140144;-72
2024/01/24 14:44:56;;;;;;;11.20;4.20;;;;;;;7.40;92.51;98944.17;216970;1259;139589;-72
2024/01/24 14:50:00;;;;;;;6.30;1.60;;;;;;;7.32;92.68;98967.45;217218;1257;142708;-71
2024/01/24 14:55:06;;;;;;;7.30;2.00;;;;;;;7.27;92.85;98959.61;217006;1256;140033;-71
2024/01/24 15:00:12;;;;;;;8.50;1.70;;;;;;;7.16;92.63;98948.05;216978;1257;140395;-72
2024/01/24 15:05:21;;;;;;;5.80;2.20;;;;;;;7.04;92.55;98957.35;216913;1256;140516;-72
2024/01/24 15:10:26;;;;;;;7.20;2.00;;;;;;;6.95;93.02;98978.11;217160;1259;139924;-71
2024/01/24 15:15:32;;;;;;;12.00;3.10;;;;;;;6.87;93.05;98972.08;216983;1257;140976;-72
2024/01/24 15:20:45;;;;;;;8.90;2.40;;;;;;;6.79;93.48;98974.55;216862;1257;140376;-71
2024/01/24 15:26:15;;;;;;;8.20;2.70;;;;;;;6.71;93.64;98980.19;217322;1256;247516;-72
2024/01/24 15:31:19;;;;;;;13.00;4.40;;;;;;;6.66;94.09;98977.80;217229;1257;140100;-71
2024/01/24 15:36:23;;;;;;;6.70;3.20;;;;;;;6.63;93.64;98974.95;216810;1259;144964;-71
2024/01/24 15:41:30;;;;;;;12.30;3.80;;;;;;;6.57;93.93;98971.79;216787;1257;141233;-71
2024/01/24 15:46:34;;;;;;;7.30;2.90;;;;;;;6.51;93.47;98970.78;217061;1259;140917;-71
2024/01/24 15:51:38;;;;;;;9.50;3.00;;;;;;;6.42;93.25;98971.89;217061;1259;139536;-72
2024/01/24 15:56:43;;;;;;;9.70;2.60;;;;;;;6.30;92.95;98974.71;217041;1259;139354;-72
2024/01/24 16:01:48;;;;;;;13.40;4.00;;;;;;;6.22;93.11;98973.23;216987;1256;139231;-72
2024/01/24 16:06:54;;;;;;;10.00;2.50;;;;;;;6.18;93.26;98975.72;217042;1257;139856;-72
2024/01/24 16:11:59;;;;;;;12.90;3.50;;;;;;;6.17;93.36;98974.84;218199;1256;140021;-72
2024/01/24 16:17:04;;;;;;;7.60;3.50;;;;;;;6.22;93.82;98976.52;217074;1259;141477;-71
2024/01/24 16:22:11;;;;;;;11.90;2.90;;;;;;;6.28;93.60;98979.42;219109;1256;139613;-71
2024/01/24 16:27:16;;;;;;;5.00;2.50;;;;;;;6.32;93.26;98977.86;217116;1257;140949;-71
2024/01/24 16:32:21;;;;;;;7.10;3.30;;;;;;;6.35;93.03;98980.42;216898;1257;141227;-70
2024/01/24 16:37:26;;;;;;;7.00;2.00;;;;;;;6.36;92.44;98982.45;216884;1257;139725;-71
2024/01/24 16:42:31;;;;;;;5.70;2.40;;;;;;;6.35;91.94;98982.38;217324;1257;140498;-71
2024/01/24 16:47:36;;;;;;;8.00;2.50;;;;;;;6.35;92.05;98987.02;216837;1257;139562;-71
2024/01/24 16:52:40;;;;;;;5.10;2.40;;;;;;;6.39;92.15;98990.73;216961;1257;141285;-71
2024/01/24 16:57:44;;;;;;;12.50;3.20;;;;;;;6.41;91.54;98997.45;217029;1257;276379;-70
2024/01/24 17:02:51;;;;;;;6.70;2.40;;;;;;;6.40;91.42;98993.84;217022;1259;140501;-70
2024/01/24 17:08:02;;;;;;;5.70;3.20;;;;;;;6.39;90.78;98996.92;217058;1260;139835;-69
2024/01/24 17:13:07;;;;;;;5.40;1.70;;;;;;;6.38;91.21;98995.86;217787;1257;140735;-71
2024/01/24 17:18:11;;;;;;;9.00;2.60;;;;;;;6.40;91.04;99000.02;217061;1257;140376;-69
2024/01/24 17:23:18;;;;;;;4.90;2.70;;;;;;;6.35;90.31;99001.07;216755;1256;139587;-71
2024/01/24 17:28:23;;;;;;;9.20;2.80;;;;;;;6.30;90.32;98997.38;216757;1259;139624;-71
2024/01/24 17:33:28;;;;;;;9.80;2.30;;;;;;;6.27;90.63;98999.67;216787;1257;141519;-71
2024/01/24 17:38:32;;;;;;;9.60;3.90;;;;;;;6.29;90.35;98998.02;216922;1256;140046;-71
2024/01/24 17:43:37;;;;;;;14.20;3.30;;;;;;;6.28;90.20;99002.98;217170;1259;139499;-71
2024/01/24 17:48:42;;;;;;;8.70;2.90;;;;;;;6.31;90.49;99003.37;217186;1259;139907;-71
2024/01/24 17:53:50;;;;;;;7.70;2.80;;;;;;;6.33;90.70;98998.67;217067;1257;139566;-71
2024/01/24 17:58:57;;;;;;;8.20;3.50;;;;;;;6.35;90.10;98999.20;217268;1257;140409;-71
2024/01/24 18:04:02;;;;;;;7.20;3.30;;;;;;;6.38;90.10;98995.41;217151;1259;140496;-71
2024/01/24 18:09:08;;;;;;;7.20;3.00;;;;;;;6.40;90.09;98996.38;217231;1256;139678;-71
2024/01/24 18:14:13;;;;;;;11.90;3.50;;;;;;;6.41;90.33;99002.91;217238;1256;139506;-71
2024/01/24 18:19:17;;;;;;;10.00;2.30;;;;;;;6.41;90.44;98996.87;218962;1256;140606;-71
2024/01/24 18:24:22;;;;;;;3.40;2.30;;;;;;;6.43;90.28;98998.81;220198;1257;139783;-71
2024/01/24 18:29:28;;;;;;;11.60;3.00;;;;;;;6.48;90.44;99000.72;217210;1259;139501;-72
2024/01/24 18:34:35;;;;;;;7.70;2.90;;;;;;;6.49;90.03;99007.17;216903;1257;139905;-71
2024/01/24 18:39:41;;;;;;;7.10;2.30;;;;;;;6.48;89.85;99003.53;217817;1256;141782;-71
2024/01/24 18:44:47;;;;;;;7.20;3.10;;;;;;;6.49;89.72;99004.81;217075;1257;139610;-72
2024/01/24 18:49:53;;;;;;;;;;;;;;;6.49;89.91;99000.74;216759;1256;139553;-72
2024/01/24 18:54:58;;;;;;;12.40;3.20;;;;;;;6.47;89.87;99000.48;217337;1257;125945;-71
2024/01/24 19:00:04;;;;;;;8.50;2.70;;;;;;;6.48;89.48;98997.29;217112;1259;141642;-72
2024/01/24 19:05:09;;;;;;;7.20;3.60;;;;;;;6.49;89.20;98998.90;217452;1256;140870;-71
2024/01/24 19:10:22;;;;;;;14.00;2.50;;;;;;;6.49;89.34;98995.08;216900;1257;140347;-72
2024/01/24 19:15:27;;;;;;;20.80;4.50;;;;;;;6.49;88.84;98993.17;217169;1255;140275;-71
2024/01/24 19:20:33;;;;;;;17.10;4.60;;;;;;;6.46;88.99;98994.38;216940;1259;141356;-73
2024/01/24 19:25:38;;;;;;;12.40;3.80;;;;;;;6.47;89.09;98997.42;217468;1259;141119;-73
2024/01/24 19:30:43;;;;;;;6.10;2.40;;;;;;;6.47;89.20;99006.74;217095;1257;139632;-73
2024/01/24 19:35:47;;;;;;;8.00;2.50;;;;;;;6.47;88.80;99009.77;217086;1257;140392;-72
2024/01/24 19:40:53;;;;;;;14.20;2.90;;;;;;;6.43;88.76;98995.69;217135;1255;140401;-72
2024/01/24 19:45:57;;;;;;;9.90;2.90;;;;;;;6.41;88.80;99011.58;217354;1256;219961;-73
2024/01/24 19:51:01;;;;;;;12.20;2.90;;;;;;;6.36;88.93;99008.65;217126;1257;140474;-72
2024/01/24 19:56:06;;;;;;;9.40;3.60;;;;;;;6.31;89.00;99014.86;217391;1257;140616;-72
2024/01/24 20:01:10;;;;;;;9.30;3.60;;;;;;;6.26;88.77;99017.84;217506;1259;139641;-72
2024/01/24 20:06:15;;;;;;;8.70;3.10;;;;;;;6.21;88.70;99021.33;217238;1259;139428;-73
2024/01/24 20:11:20;;;;;;;10.60;4.00;;;;;;;6.20;88.68;99021.96;217951;1259;139928;-72
2024/01/24 20:16:25;;;;;;;6.70;2.60;;;;;;;6.17;88.63;99014.58;217509;1256;140206;-73
2024/01/24 20:21:29;;;;;;;5.90;2.70;;;;;;;6.16;88.71;99016.51;217480;1255;140014;-72
2024/01/24 20:26:34;;;;;;;5.40;2.20;;;;;;;6.17;88.77;99013.36;217272;1257;139720;-73
2024/01/24 20:31:39;;;;;;;9.90;2.50;;;;;;;6.18;89.04;99011.48;217702;1257;139195;-73
2024/01/24 20:36:43;;;;;;;5.30;2.60;;;;;;;6.19;88.75;99013.90;218822;1257;139706;-72
2024/01/24 20:41:48;;;;;;;3.60;2.20;;;;;;;6.22;88.40;99014.48;217242;1259;140988;-73
2024/01/24 20:46:53;;;;;;;10.10;3.70;;;;;;;6.24;88.53;99013.31;217038;1257;139233;-74
2024/01/24 20:51:57;;;;;;;7.10;1.70;;;;;;;6.24;88.29;99015.35;217323;1257;139341;-70
2024/01/24 20:57:02;;;;;;;4.20;2.40;;;;;;;6.25;88.71;99022.59;216938;1259;139572;-75
2024/01/24 21:02:06;;;;;;;10.50;4.20;;;;;;;6.27;88.50;99023.13;217057;1259;139897;-73
2024/01/24 21:07:11;;;;;;;8.40;2.80;;;;;;;6.26;88.36;99026.27;217051;1259;140433;-70
2024/01/24 21:12:16;;;;;;;7.70;4.20;;;;;;;6.25;88.26;99030.48;217294;1257;140340;-72
2024/01/24 21:17:20;;;;;;;12.70;3.70;;;;;;;6.24;88.22;99038.92;217484;1259;161560;-74
2024/01/24 21:22:24;;;;;;;11.20;2.60;;;;;;;6.20;87.94;99040.14;217672;1257;141139;-70
2024/01/24 21:27:31;;;;;;;7.40;3.20;;;;;;;6.17;87.76;99035.06;220482;1255;139749;-74
2024/01/24 21:32:35;;;;;;;7.20;2.30;;;;;;;6.16;88.51;99051.11;216569;1261;139696;-70
2024/01/24 21:37:39;;;;;;;7.70;3.30;;;;;;;6.13;88.33;99046.22;216488;1261;139466;-69
2024/01/24 21:42:43;;;;;;;5.30;2.10;;;;;;;6.11;88.61;99052.11;216752;1259;140478;-74
2024/01/24 21:47:47;;;;;;;6.00;2.40;;;;;;;6.07;88.62;99059.70;216557;1258;141376;-70
2024/01/24 21:52:51;;;;;;;6.20;2.20;;;;;;;6.00;88.37;99049.80;216562;1258;140341;-71
2024/01/24 21:57:54;;;;;;;8.20;2.80;;;;;;;5.97;88.29;99058.27;216661;1260;140763;-68
2024/01/24 22:02:58;;;;;;;7.00;2.20;;;;;;;5.94;88.51;99062.20;216550;1262;142644;-68
2024/01/24 22:08:03;;;;;;;3.90;1.40;;;;;;;5.89;88.96;99052.15;217091;1260;140843;-70
2024/01/24 22:13:07;;;;;;;6.20;1.30;;;;;;;5.84;88.84;99048.65;216855;1262;139546;-69
2024/01/24 22:18:12;;;;;;;6.70;3.00;;;;;;;5.77;89.12;99044.77;217105;1262;140019;-70
2024/01/24 22:23:16;;;;;;;9.60;2.20;;;;;;;5.72;88.66;99047.33;217882;1261;139895;-68
2024/01/24 22:28:19;;;;;;;8.50;1.90;;;;;;;5.72;89.06;99038.45;217874;1259;139128;-71
2024/01/24 22:33:24;;;;;;;6.10;1.50;;;;;;;5.75;88.60;99035.79;217300;1257;139701;-70
2024/01/24 22:38:28;;;;;;;4.10;1.80;;;;;;;5.78;88.60;99037.96;216750;1262;139492;-69
2024/01/24 22:43:33;;;;;;;3.00;1.70;;;;;;;5.80;88.43;99038.39;216670;1262;140271;-69
2024/01/24 22:48:37;;;;;;;7.80;1.70;;;;;;;5.78;87.80;99050.94;217735;1258;139547;-69
2024/01/24 22:53:41;;;;;;;3.90;2.50;;;;;;;5.76;87.85;99046.85;216862;1260;139586;-70
2024/01/24 22:58:46;;;;;;;8.60;2.20;;;;;;;5.73;87.81;99048.98;216924;1260;141194;-70
2024/01/24 23:03:50;;;;;;;9.00;2.40;;;;;;;5.70;87.25;99047.67;217264;1261;139801;-73
2024/01/24 23:08:55;;;;;;;7.30;2.00;;;;;;;5.68;87.30;99048.75;217345;1260;139666;-75
2024/01/24 23:14:01;;;;;;;6.30;2.00;;;;;;;5.67;87.23;99045.34;217108;1262;140488;-75
2024/01/24 23:19:05;;;;;;;6.10;2.30;;;;;;;5.69;87.00;99049.84;217018;1259;140248;-74
2024/01/24 23:24:10;;;;;;;11.00;2.20;;;;;;;5.69;86.59;99052.27;216602;1260;139907;-70
2024/01/24 23:29:14;;;;;;;5.70;1.70;;;;;;;5.70;86.41;99056.84;216668;1261;139614;-69
2024/01/24 23:34:18;;;;;;;7.00;2.50;;;;;;;5.69;86.28;99062.77;217118;1260;141281;-70